CST,Max TemperatureF,Mean TemperatureF,Min TemperatureF,Max Dew PointF,MeanDew PointF,Min DewpointF,Max Humidity, Mean Humidity, Min Humidity, Max Sea Level PressureIn, Mean Sea Level PressureIn, Min Sea Level PressureIn, Max VisibilityMiles, Mean VisibilityMiles, Min VisibilityMiles, Max Wind SpeedMPH, Mean Wind SpeedMPH, Max Gust SpeedMPH,PrecipitationIn, CloudCover, Events, WindDirDegrees
2012-10-1,68,50,32,44,36,30,99,63,24,30.26,30.09,29.67,,,,17,8,24,0.00,,,235
2012-10-2,63,51,39,46,39,33,78,59,37,29.93,29.70,29.50,,,,25,16,33,0.00,,,294
2012-10-3,43,40,36,38,33,28,93,73,47,30.47,30.21,29.96,,,,20,13,28,0.00,,,1
2012-10-4,42,36,26,29,24,18,88,67,40,30.49,30.46,30.43,,,,14,9,18,0.00,,,350
2012-10-5,37,28,18,21,18,13,87,65,36,30.53,30.49,30.45,,,,13,7,20,0.00,,,344
2012-10-6,52,30,8,24,16,6,89,57,18,30.51,30.32,30.03,,,,14,6,22,0.00,,,246
2012-10-7,50,38,26,39,30,22,86,68,35,30.01,29.88,29.61,,,,14,7,,0.00,,,266
2012-10-8,45,40,34,40,34,25,94,73,41,29.88,29.74,29.61,,,,31,17,40,0.00,,,314
2012-10-9,45,38,30,34,29,21,100,79,50,30.09,30.04,29.91,,,,18,13,24,0.02,,,309
2012-10-10,38,30,22,36,31,19,100,91,71,30.19,30.02,29.93,,,,13,5,,0.08,,,8
2012-10-11,36,30,23,31,25,22,97,86,61,30.43,30.34,30.20,,,,15,10,,0.00,,,325
2012-10-12,59,42,24,36,30,23,88,71,40,30.21,29.87,29.62,,,,18,13,21,0.00,,,161
2012-10-13,54,40,27,36,33,28,99,76,52,29.99,29.82,29.61,,,,15,8,,0.00,,,322
2012-10-14,65,48,31,42,36,31,100,71,33,30.00,29.92,29.76,,,,10,6,,0.00,,,175
2012-10-15,64,52,40,41,40,37,89,58,34,29.72,29.62,29.57,,,,14,10,17,0.00,,,274
2012-10-16,65,48,30,50,41,30,99,80,39,29.62,29.35,29.16,,,,16,7,21,0.04,,,185
2012-10-17,43,40,38,45,38,34,98,85,66,29.68,29.42,29.16,,,,41,24,52,0.16,,,308
2012-10-18,42,40,36,39,37,32,99,88,75,30.11,29.97,29.70,,,,33,26,40,0.00,,,330
2012-10-19,47,39,31,34,32,30,95,78,55,30.07,29.81,29.53,,,,23,8,29,0.00,,,156
2012-10-20,66,50,31,40,32,25,93,64,23,29.71,29.51,29.44,,,,16,10,25,0.00,,,228
2012-10-21,45,34,22,31,26,20,99,73,38,30.13,29.96,29.73,,,,17,8,,0.00,,,299
2012-10-22,41,30,19,34,28,20,100,79,60,30.15,30.08,29.94,,,,20,9,28,0.02,,,131
2012-10-23,38,35,32,35,33,29,100,93,75,29.89,29.79,29.73,,,,23,13,21,0.20,,,236
2012-10-24,32,30,28,26,24,22,84,76,61,30.11,30.00,29.90,,,,20,16,29,0.00,,,282
2012-10-25,31,30,27,27,24,22,89,78,64,30.33,30.21,30.11,,,,26,21,36,0.00,,,308
2012-10-26,31,26,22,24,20,15,92,77,51,30.38,30.35,30.32,,,,22,14,29,0.00,,,304
2012-10-27,28,19,10,18,12,8,93,75,40,30.38,30.35,30.31,,,,9,5,,0.00,,,319
2012-10-28,27,20,13,25,19,14,92,81,65,30.34,30.20,30.07,,,,22,14,29,0.00,,,122
2012-10-29,33,29,26,33,30,26,100,98,89,30.10,30.07,30.04,,,,18,16,,0.01,,,128
2012-10-30,49,40,31,44,38,34,100,96,79,29.99,29.97,29.94,,,,16,10,,0.00,,,152
2012-10-31,34,30,24,40,30,21,99,90,79,30.27,30.15,29.94,,,,21,12,28,0.00,,,353